sensor_id;sensor_type;location;lat;lon;timestamp;temperature;humidity
20714;DHT22;10518;50.742;4.226;2023-04-07T00:01:21;10.80;99.90
20714;DHT22;10518;50.742;4.226;2023-04-07T00:03:47;10.70;99.90
20714;DHT22;10518;50.742;4.226;2023-04-07T00:06:13;10.70;99.90
20714;DHT22;10518;50.742;4.226;2023-04-07T00:08:38;10.70;99.90
20714;DHT22;10518;50.742;4.226;2023-04-07T00:11:04;10.60;99.90
20714;DHT22;10518;50.742;4.226;2023-04-07T00:13:30;10.70;99.90
20714;DHT22;10518;50.742;4.226;2023-04-07T00:15:56;10.60;99.90
20714;DHT22;10518;50.742;4.226;2023-04-07T00:18:21;10.70;99.90
20714;DHT22;10518;50.742;4.226;2023-04-07T00:20:47;10.80;99.90
20714;DHT22;10518;50.742;4.226;2023-04-07T00:23:13;10.70;99.90
20714;DHT22;10518;50.742;4.226;2023-04-07T00:25:38;10.90;99.90
20714;DHT22;10518;50.742;4.226;2023-04-07T00:28:04;11.10;99.90
20714;DHT22;10518;50.742;4.226;2023-04-07T00:30:29;11.00;99.90
20714;DHT22;10518;50.742;4.226;2023-04-07T00:32:55;11.00;99.90
20714;DHT22;10518;50.742;4.226;2023-04-07T00:35:21;11.00;99.90
20714;DHT22;10518;50.742;4.226;2023-04-07T00:37:47;10.80;99.90
20714;DHT22;10518;50.742;4.226;2023-04-07T00:40:12;10.80;99.90
20714;DHT22;10518;50.742;4.226;2023-04-07T00:42:38;10.80;99.90
20714;DHT22;10518;50.742;4.226;2023-04-07T00:45:04;10.80;99.90
20714;DHT22;10518;50.742;4.226;2023-04-07T00:47:30;10.80;99.90
20714;DHT22;10518;50.742;4.226;2023-04-07T00:49:56;10.70;99.90
20714;DHT22;10518;50.742;4.226;2023-04-07T00:52:23;10.70;99.90
20714;DHT22;10518;50.742;4.226;2023-04-07T00:54:53;10.70;99.90
20714;DHT22;10518;50.742;4.226;2023-04-07T00:57:20;10.70;99.90
20714;DHT22;10518;50.742;4.226;2023-04-07T00:59:48;10.70;99.90
20714;DHT22;10518;50.742;4.226;2023-04-07T01:02:42;10.70;99.90
20714;DHT22;10518;50.742;4.226;2023-04-07T01:05:22;10.70;99.90
20714;DHT22;10518;50.742;4.226;2023-04-07T01:07:57;10.60;99.90
20714;DHT22;10518;50.742;4.226;2023-04-07T01:13:36;10.60;99.90
20714;DHT22;10518;50.742;4.226;2023-04-07T01:16:10;10.60;99.90
20714;DHT22;10518;50.742;4.226;2023-04-07T01:18:37;10.60;99.90
20714;DHT22;10518;50.742;4.226;2023-04-07T01:21:10;10.50;99.90
20714;DHT22;10518;50.742;4.226;2023-04-07T01:24:02;10.50;99.90
20714;DHT22;10518;50.742;4.226;2023-04-07T01:26:31;10.50;99.90
20714;DHT22;10518;50.742;4.226;2023-04-07T01:31:29;10.50;99.90
20714;DHT22;10518;50.742;4.226;2023-04-07T01:33:56;10.50;99.90
20714;DHT22;10518;50.742;4.226;2023-04-07T01:36:26;10.50;99.90
20714;DHT22;10518;50.742;4.226;2023-04-07T01:38:53;10.50;99.90
20714;DHT22;10518;50.742;4.226;2023-04-07T01:41:19;10.40;99.90
20714;DHT22;10518;50.742;4.226;2023-04-07T01:43:46;10.40;99.90
20714;DHT22;10518;50.742;4.226;2023-04-07T01:46:13;10.40;99.90
20714;DHT22;10518;50.742;4.226;2023-04-07T01:48:39;10.40;99.90
20714;DHT22;10518;50.742;4.226;2023-04-07T01:51:06;10.40;99.90
20714;DHT22;10518;50.742;4.226;2023-04-07T01:53:33;10.40;99.90
20714;DHT22;10518;50.742;4.226;2023-04-07T01:56:02;10.40;99.90
20714;DHT22;10518;50.742;4.226;2023-04-07T01:58:28;10.30;99.90
20714;DHT22;10518;50.742;4.226;2023-04-07T02:00:54;10.30;99.90
20714;DHT22;10518;50.742;4.226;2023-04-07T02:03:23;10.30;99.90
20714;DHT22;10518;50.742;4.226;2023-04-07T02:05:54;10.20;99.90
20714;DHT22;10518;50.742;4.226;2023-04-07T02:08:22;10.20;99.90
20714;DHT22;10518;50.742;4.226;2023-04-07T02:10:49;10.10;99.90
20714;DHT22;10518;50.742;4.226;2023-04-07T02:13:18;10.10;99.90
20714;DHT22;10518;50.742;4.226;2023-04-07T02:15:45;10.10;99.90
20714;DHT22;10518;50.742;4.226;2023-04-07T02:18:12;10.10;99.90
20714;DHT22;10518;50.742;4.226;2023-04-07T02:20:40;10.10;99.90
20714;DHT22;10518;50.742;4.226;2023-04-07T02:23:07;10.20;99.90
20714;DHT22;10518;50.742;4.226;2023-04-07T02:25:33;10.20;99.90
20714;DHT22;10518;50.742;4.226;2023-04-07T02:27:59;10.10;99.90
20714;DHT22;10518;50.742;4.226;2023-04-07T02:30:26;10.10;99.90
20714;DHT22;10518;50.742;4.226;2023-04-07T02:32:52;10.10;99.90
20714;DHT22;10518;50.742;4.226;2023-04-07T02:35:18;10.00;99.90
20714;DHT22;10518;50.742;4.226;2023-04-07T02:37:44;10.00;99.90
20714;DHT22;10518;50.742;4.226;2023-04-07T02:40:11;10.10;99.90
20714;DHT22;10518;50.742;4.226;2023-04-07T02:42:37;10.10;99.90
20714;DHT22;10518;50.742;4.226;2023-04-07T02:45:06;10.20;99.90
20714;DHT22;10518;50.742;4.226;2023-04-07T02:47:33;10.20;99.90
20714;DHT22;10518;50.742;4.226;2023-04-07T02:49:59;10.20;99.90
20714;DHT22;10518;50.742;4.226;2023-04-07T02:52:24;10.10;99.90
20714;DHT22;10518;50.742;4.226;2023-04-07T02:54:50;10.10;99.90
20714;DHT22;10518;50.742;4.226;2023-04-07T02:57:16;10.00;99.90
20714;DHT22;10518;50.742;4.226;2023-04-07T02:59:41;10.10;99.90
20714;DHT22;10518;50.742;4.226;2023-04-07T03:02:07;10.00;99.90
20714;DHT22;10518;50.742;4.226;2023-04-07T03:04:32;9.90;99.90
20714;DHT22;10518;50.742;4.226;2023-04-07T03:06:58;9.90;99.90
20714;DHT22;10518;50.742;4.226;2023-04-07T03:09:24;9.90;99.90
20714;DHT22;10518;50.742;4.226;2023-04-07T03:11:50;9.90;99.90
20714;DHT22;10518;50.742;4.226;2023-04-07T03:14:16;9.90;99.90
20714;DHT22;10518;50.742;4.226;2023-04-07T03:16:41;9.90;99.90
20714;DHT22;10518;50.742;4.226;2023-04-07T03:19:08;9.90;99.90
20714;DHT22;10518;50.742;4.226;2023-04-07T03:21:35;9.90;99.90
20714;DHT22;10518;50.742;4.226;2023-04-07T03:24:00;10.00;99.90
20714;DHT22;10518;50.742;4.226;2023-04-07T03:26:26;9.90;99.90
20714;DHT22;10518;50.742;4.226;2023-04-07T03:28:51;9.90;99.90
20714;DHT22;10518;50.742;4.226;2023-04-07T03:31:17;10.00;99.90
20714;DHT22;10518;50.742;4.226;2023-04-07T03:33:43;10.00;99.90
20714;DHT22;10518;50.742;4.226;2023-04-07T03:36:08;9.90;99.90
20714;DHT22;10518;50.742;4.226;2023-04-07T03:38:34;9.90;99.90
20714;DHT22;10518;50.742;4.226;2023-04-07T03:40:59;9.90;99.90
20714;DHT22;10518;50.742;4.226;2023-04-07T03:43:25;9.90;99.90
20714;DHT22;10518;50.742;4.226;2023-04-07T03:45:52;9.90;99.90
20714;DHT22;10518;50.742;4.226;2023-04-07T03:48:18;9.90;99.90
20714;DHT22;10518;50.742;4.226;2023-04-07T03:50:44;9.90;99.90
20714;DHT22;10518;50.742;4.226;2023-04-07T03:53:11;9.80;99.90
20714;DHT22;10518;50.742;4.226;2023-04-07T03:55:38;9.80;99.90
20714;DHT22;10518;50.742;4.226;2023-04-07T03:58:04;9.80;99.90
20714;DHT22;10518;50.742;4.226;2023-04-07T04:00:30;9.70;99.90
20714;DHT22;10518;50.742;4.226;2023-04-07T04:03:00;9.70;99.90
20714;DHT22;10518;50.742;4.226;2023-04-07T04:05:26;9.90;99.90
20714;DHT22;10518;50.742;4.226;2023-04-07T04:07:51;9.90;99.90
20714;DHT22;10518;50.742;4.226;2023-04-07T04:10:18;9.90;99.90
20714;DHT22;10518;50.742;4.226;2023-04-07T04:12:45;9.80;99.90
20714;DHT22;10518;50.742;4.226;2023-04-07T04:15:11;9.90;99.90
20714;DHT22;10518;50.742;4.226;2023-04-07T04:17:36;10.00;99.90
20714;DHT22;10518;50.742;4.226;2023-04-07T04:20:02;9.90;99.90
20714;DHT22;10518;50.742;4.226;2023-04-07T04:22:28;9.90;99.90
20714;DHT22;10518;50.742;4.226;2023-04-07T04:24:53;9.90;99.90
20714;DHT22;10518;50.742;4.226;2023-04-07T04:27:19;9.80;99.90
20714;DHT22;10518;50.742;4.226;2023-04-07T04:29:45;9.90;99.90
20714;DHT22;10518;50.742;4.226;2023-04-07T04:32:11;9.80;99.90
20714;DHT22;10518;50.742;4.226;2023-04-07T04:34:37;9.70;99.90
20714;DHT22;10518;50.742;4.226;2023-04-07T04:37:03;9.70;99.90
20714;DHT22;10518;50.742;4.226;2023-04-07T04:39:29;9.70;99.90
20714;DHT22;10518;50.742;4.226;2023-04-07T04:41:54;9.70;99.90
20714;DHT22;10518;50.742;4.226;2023-04-07T04:44:21;9.70;99.90
20714;DHT22;10518;50.742;4.226;2023-04-07T04:46:47;9.70;99.90
20714;DHT22;10518;50.742;4.226;2023-04-07T04:49:12;9.70;99.90
20714;DHT22;10518;50.742;4.226;2023-04-07T04:51:38;9.80;99.90
20714;DHT22;10518;50.742;4.226;2023-04-07T04:54:04;9.70;99.90
20714;DHT22;10518;50.742;4.226;2023-04-07T04:56:31;9.70;99.90
20714;DHT22;10518;50.742;4.226;2023-04-07T04:58:56;9.80;99.90
20714;DHT22;10518;50.742;4.226;2023-04-07T05:01:22;9.80;99.90
20714;DHT22;10518;50.742;4.226;2023-04-07T05:03:48;9.80;99.90
20714;DHT22;10518;50.742;4.226;2023-04-07T05:06:14;9.80;99.90
20714;DHT22;10518;50.742;4.226;2023-04-07T05:08:39;9.80;99.90
20714;DHT22;10518;50.742;4.226;2023-04-07T05:11:05;9.80;99.90
20714;DHT22;10518;50.742;4.226;2023-04-07T05:13:30;9.70;99.90
20714;DHT22;10518;50.742;4.226;2023-04-07T05:15:56;9.70;99.90
20714;DHT22;10518;50.742;4.226;2023-04-07T05:18:22;9.60;99.90
20714;DHT22;10518;50.742;4.226;2023-04-07T05:20:50;9.60;99.90
20714;DHT22;10518;50.742;4.226;2023-04-07T05:23:16;9.50;99.90
20714;DHT22;10518;50.742;4.226;2023-04-07T05:25:41;9.40;99.90
20714;DHT22;10518;50.742;4.226;2023-04-07T05:28:07;9.30;99.90
20714;DHT22;10518;50.742;4.226;2023-04-07T05:30:32;9.30;99.90
20714;DHT22;10518;50.742;4.226;2023-04-07T05:32:58;9.20;99.90
20714;DHT22;10518;50.742;4.226;2023-04-07T05:35:24;9.10;99.90
20714;DHT22;10518;50.742;4.226;2023-04-07T05:37:49;9.20;99.90
20714;DHT22;10518;50.742;4.226;2023-04-07T05:40:15;9.20;99.90
20714;DHT22;10518;50.742;4.226;2023-04-07T05:42:41;9.10;99.90
20714;DHT22;10518;50.742;4.226;2023-04-07T05:45:08;9.00;99.90
20714;DHT22;10518;50.742;4.226;2023-04-07T05:47:34;9.00;99.90
20714;DHT22;10518;50.742;4.226;2023-04-07T05:49:59;9.00;99.90
20714;DHT22;10518;50.742;4.226;2023-04-07T05:52:25;9.00;99.90
20714;DHT22;10518;50.742;4.226;2023-04-07T05:54:51;9.00;99.90
20714;DHT22;10518;50.742;4.226;2023-04-07T05:57:16;9.00;99.90
20714;DHT22;10518;50.742;4.226;2023-04-07T05:59:42;9.00;99.90
20714;DHT22;10518;50.742;4.226;2023-04-07T06:02:07;9.00;99.90
20714;DHT22;10518;50.742;4.226;2023-04-07T06:04:33;9.00;99.90
20714;DHT22;10518;50.742;4.226;2023-04-07T06:07:00;9.00;99.90
20714;DHT22;10518;50.742;4.226;2023-04-07T06:09:26;9.10;99.90
20714;DHT22;10518;50.742;4.226;2023-04-07T06:11:52;9.10;99.90
20714;DHT22;10518;50.742;4.226;2023-04-07T06:14:17;9.40;99.90
20714;DHT22;10518;50.742;4.226;2023-04-07T06:16:43;9.60;99.90
20714;DHT22;10518;50.742;4.226;2023-04-07T06:19:09;9.60;99.90
20714;DHT22;10518;50.742;4.226;2023-04-07T06:21:34;9.60;99.90
20714;DHT22;10518;50.742;4.226;2023-04-07T06:24:00;9.70;99.90
20714;DHT22;10518;50.742;4.226;2023-04-07T06:26:26;9.70;99.90
20714;DHT22;10518;50.742;4.226;2023-04-07T06:28:52;9.80;99.90
20714;DHT22;10518;50.742;4.226;2023-04-07T06:31:18;9.80;99.90
20714;DHT22;10518;50.742;4.226;2023-04-07T06:33:44;10.10;99.90
20714;DHT22;10518;50.742;4.226;2023-04-07T06:36:13;10.30;99.90
20714;DHT22;10518;50.742;4.226;2023-04-07T06:38:38;10.70;99.90
20714;DHT22;10518;50.742;4.226;2023-04-07T06:41:04;11.20;99.90
20714;DHT22;10518;50.742;4.226;2023-04-07T06:43:30;11.80;99.90
20714;DHT22;10518;50.742;4.226;2023-04-07T06:45:56;12.10;99.90
20714;DHT22;10518;50.742;4.226;2023-04-07T06:48:22;12.10;99.90
20714;DHT22;10518;50.742;4.226;2023-04-07T06:50:50;12.00;99.90
20714;DHT22;10518;50.742;4.226;2023-04-07T06:53:16;11.90;99.90
20714;DHT22;10518;50.742;4.226;2023-04-07T06:55:42;12.20;99.90
20714;DHT22;10518;50.742;4.226;2023-04-07T06:58:08;12.70;99.90
20714;DHT22;10518;50.742;4.226;2023-04-07T07:00:34;13.00;99.90
20714;DHT22;10518;50.742;4.226;2023-04-07T07:03:00;13.60;99.90
20714;DHT22;10518;50.742;4.226;2023-04-07T07:05:26;14.10;99.90
20714;DHT22;10518;50.742;4.226;2023-04-07T07:07:51;14.20;99.90
20714;DHT22;10518;50.742;4.226;2023-04-07T07:10:17;14.30;99.90
20714;DHT22;10518;50.742;4.226;2023-04-07T07:12:44;14.30;99.90
20714;DHT22;10518;50.742;4.226;2023-04-07T07:15:10;14.20;99.90
20714;DHT22;10518;50.742;4.226;2023-04-07T07:17:36;14.20;99.90
20714;DHT22;10518;50.742;4.226;2023-04-07T07:20:01;14.20;99.90
20714;DHT22;10518;50.742;4.226;2023-04-07T07:22:27;13.70;99.90
20714;DHT22;10518;50.742;4.226;2023-04-07T07:24:53;13.30;99.90
20714;DHT22;10518;50.742;4.226;2023-04-07T07:27:18;13.10;99.90
20714;DHT22;10518;50.742;4.226;2023-04-07T07:29:44;12.70;99.90
20714;DHT22;10518;50.742;4.226;2023-04-07T07:32:09;12.20;99.90
20714;DHT22;10518;50.742;4.226;2023-04-07T07:34:35;12.00;99.90
20714;DHT22;10518;50.742;4.226;2023-04-07T07:37:01;12.20;99.90
20714;DHT22;10518;50.742;4.226;2023-04-07T07:39:26;12.10;99.90
20714;DHT22;10518;50.742;4.226;2023-04-07T07:41:52;12.10;99.90
20714;DHT22;10518;50.742;4.226;2023-04-07T07:44:18;12.10;99.90
20714;DHT22;10518;50.742;4.226;2023-04-07T07:46:47;12.10;99.90
20714;DHT22;10518;50.742;4.226;2023-04-07T07:49:13;12.10;99.90
20714;DHT22;10518;50.742;4.226;2023-04-07T07:51:39;12.20;99.90
20714;DHT22;10518;50.742;4.226;2023-04-07T07:54:05;12.20;99.90
20714;DHT22;10518;50.742;4.226;2023-04-07T07:56:30;11.90;99.90
20714;DHT22;10518;50.742;4.226;2023-04-07T07:58:56;12.00;99.90
20714;DHT22;10518;50.742;4.226;2023-04-07T08:01:21;11.70;99.90
20714;DHT22;10518;50.742;4.226;2023-04-07T08:03:47;11.40;99.90
20714;DHT22;10518;50.742;4.226;2023-04-07T08:06:13;11.50;99.90
20714;DHT22;10518;50.742;4.226;2023-04-07T08:08:38;11.40;99.90
20714;DHT22;10518;50.742;4.226;2023-04-07T08:11:04;11.00;99.90
20714;DHT22;10518;50.742;4.226;2023-04-07T08:13:29;11.30;99.90
20714;DHT22;10518;50.742;4.226;2023-04-07T08:15:55;11.70;99.90
20714;DHT22;10518;50.742;4.226;2023-04-07T08:18:21;11.30;99.90
20714;DHT22;10518;50.742;4.226;2023-04-07T08:20:47;10.80;99.90
20714;DHT22;10518;50.742;4.226;2023-04-07T08:23:12;11.30;99.90
20714;DHT22;10518;50.742;4.226;2023-04-07T08:25:38;11.30;99.90
20714;DHT22;10518;50.742;4.226;2023-04-07T08:28:06;11.50;99.90
20714;DHT22;10518;50.742;4.226;2023-04-07T08:30:32;11.90;99.90
20714;DHT22;10518;50.742;4.226;2023-04-07T08:32:57;12.10;99.90
20714;DHT22;10518;50.742;4.226;2023-04-07T08:35:23;12.20;99.90
20714;DHT22;10518;50.742;4.226;2023-04-07T08:37:49;12.00;99.90
20714;DHT22;10518;50.742;4.226;2023-04-07T08:40:14;11.90;99.90
20714;DHT22;10518;50.742;4.226;2023-04-07T08:42:46;11.90;99.90
20714;DHT22;10518;50.742;4.226;2023-04-07T08:45:13;11.90;99.90
20714;DHT22;10518;50.742;4.226;2023-04-07T08:47:41;11.80;99.90
20714;DHT22;10518;50.742;4.226;2023-04-07T08:50:09;11.70;99.90
20714;DHT22;10518;50.742;4.226;2023-04-07T08:52:50;12.00;99.90
20714;DHT22;10518;50.742;4.226;2023-04-07T08:55:18;12.30;99.90
20714;DHT22;10518;50.742;4.226;2023-04-07T08:57:43;12.50;99.90
20714;DHT22;10518;50.742;4.226;2023-04-07T09:00:11;12.50;99.90
20714;DHT22;10518;50.742;4.226;2023-04-07T09:02:39;12.10;99.90
20714;DHT22;10518;50.742;4.226;2023-04-07T09:05:07;12.10;99.90
20714;DHT22;10518;50.742;4.226;2023-04-07T09:07:34;12.20;99.90
20714;DHT22;10518;50.742;4.226;2023-04-07T09:10:00;12.20;99.90
20714;DHT22;10518;50.742;4.226;2023-04-07T09:12:27;12.50;99.90
20714;DHT22;10518;50.742;4.226;2023-04-07T09:14:53;12.50;99.90
20714;DHT22;10518;50.742;4.226;2023-04-07T09:17:19;12.60;99.90
20714;DHT22;10518;50.742;4.226;2023-04-07T09:19:46;12.50;99.90
20714;DHT22;10518;50.742;4.226;2023-04-07T09:22:12;12.70;99.90
20714;DHT22;10518;50.742;4.226;2023-04-07T09:24:39;12.90;99.90
20714;DHT22;10518;50.742;4.226;2023-04-07T09:27:13;13.40;99.90
20714;DHT22;10518;50.742;4.226;2023-04-07T09:29:41;13.60;99.90
20714;DHT22;10518;50.742;4.226;2023-04-07T09:32:07;13.90;99.90
20714;DHT22;10518;50.742;4.226;2023-04-07T09:34:37;14.00;99.90
20714;DHT22;10518;50.742;4.226;2023-04-07T09:37:07;13.70;99.90
20714;DHT22;10518;50.742;4.226;2023-04-07T09:39:56;13.40;99.90
20714;DHT22;10518;50.742;4.226;2023-04-07T09:42:21;13.60;99.90
20714;DHT22;10518;50.742;4.226;2023-04-07T09:44:47;13.70;99.90
20714;DHT22;10518;50.742;4.226;2023-04-07T09:47:13;13.90;99.90
20714;DHT22;10518;50.742;4.226;2023-04-07T09:49:52;14.10;99.90
20714;DHT22;10518;50.742;4.226;2023-04-07T09:52:21;13.80;99.90
20714;DHT22;10518;50.742;4.226;2023-04-07T09:54:48;13.80;99.90
20714;DHT22;10518;50.742;4.226;2023-04-07T09:57:15;14.30;99.90
20714;DHT22;10518;50.742;4.226;2023-04-07T09:59:43;14.40;99.90
20714;DHT22;10518;50.742;4.226;2023-04-07T10:02:10;14.60;99.90
20714;DHT22;10518;50.742;4.226;2023-04-07T10:04:37;14.40;99.90
20714;DHT22;10518;50.742;4.226;2023-04-07T10:07:04;14.40;99.90
20714;DHT22;10518;50.742;4.226;2023-04-07T10:09:30;14.50;99.90
20714;DHT22;10518;50.742;4.226;2023-04-07T10:11:57;14.20;99.90
20714;DHT22;10518;50.742;4.226;2023-04-07T10:14:29;14.30;99.90
20714;DHT22;10518;50.742;4.226;2023-04-07T10:16:55;14.40;99.90
20714;DHT22;10518;50.742;4.226;2023-04-07T10:19:22;14.50;99.90
20714;DHT22;10518;50.742;4.226;2023-04-07T10:21:50;14.30;99.90
20714;DHT22;10518;50.742;4.226;2023-04-07T10:24:50;14.40;99.90
20714;DHT22;10518;50.742;4.226;2023-04-07T10:27:22;14.60;99.90
20714;DHT22;10518;50.742;4.226;2023-04-07T10:29:49;14.40;99.90
20714;DHT22;10518;50.742;4.226;2023-04-07T10:32:17;14.40;99.90
20714;DHT22;10518;50.742;4.226;2023-04-07T10:37:22;14.70;99.90
20714;DHT22;10518;50.742;4.226;2023-04-07T10:39:49;14.60;99.90
20714;DHT22;10518;50.742;4.226;2023-04-07T10:45:06;13.50;99.90
20714;DHT22;10518;50.742;4.226;2023-04-07T10:47:33;13.20;99.90
20714;DHT22;10518;50.742;4.226;2023-04-07T10:50:21;13.20;99.90
20714;DHT22;10518;50.742;4.226;2023-04-07T10:53:03;13.10;99.90
20714;DHT22;10518;50.742;4.226;2023-04-07T10:55:35;12.90;99.90
20714;DHT22;10518;50.742;4.226;2023-04-07T11:03:38;13.00;99.90
20714;DHT22;10518;50.742;4.226;2023-04-07T11:06:13;13.20;99.90
20714;DHT22;10518;50.742;4.226;2023-04-07T11:08:43;13.10;99.90
20714;DHT22;10518;50.742;4.226;2023-04-07T11:11:12;13.20;99.90
20714;DHT22;10518;50.742;4.226;2023-04-07T11:13:42;13.10;99.90
20714;DHT22;10518;50.742;4.226;2023-04-07T11:16:08;13.50;99.90
20714;DHT22;10518;50.742;4.226;2023-04-07T11:18:35;13.80;99.90
20714;DHT22;10518;50.742;4.226;2023-04-07T11:21:01;14.10;99.90
20714;DHT22;10518;50.742;4.226;2023-04-07T11:23:27;14.10;99.90
20714;DHT22;10518;50.742;4.226;2023-04-07T11:26:00;14.10;99.90
20714;DHT22;10518;50.742;4.226;2023-04-07T11:28:26;13.90;99.90
20714;DHT22;10518;50.742;4.226;2023-04-07T11:30:53;14.00;99.90
20714;DHT22;10518;50.742;4.226;2023-04-07T11:33:21;14.00;99.90
20714;DHT22;10518;50.742;4.226;2023-04-07T11:38:21;14.20;99.90
20714;DHT22;10518;50.742;4.226;2023-04-07T11:40:47;14.40;99.90
20714;DHT22;10518;50.742;4.226;2023-04-07T11:43:25;15.00;99.90
20714;DHT22;10518;50.742;4.226;2023-04-07T11:48:31;15.10;99.90
20714;DHT22;10518;50.742;4.226;2023-04-07T11:50:57;15.30;99.90
20714;DHT22;10518;50.742;4.226;2023-04-07T11:53:30;14.90;99.90
20714;DHT22;10518;50.742;4.226;2023-04-07T11:56:11;14.60;99.90
20714;DHT22;10518;50.742;4.226;2023-04-07T11:58:51;14.30;99.90
20714;DHT22;10518;50.742;4.226;2023-04-07T12:01:17;14.00;99.90
20714;DHT22;10518;50.742;4.226;2023-04-07T12:03:57;13.80;99.90
20714;DHT22;10518;50.742;4.226;2023-04-07T12:08:59;13.50;99.90
20714;DHT22;10518;50.742;4.226;2023-04-07T12:11:25;13.60;99.90
20714;DHT22;10518;50.742;4.226;2023-04-07T12:13:51;13.70;99.90
20714;DHT22;10518;50.742;4.226;2023-04-07T12:16:17;14.00;99.90
20714;DHT22;10518;50.742;4.226;2023-04-07T12:18:43;14.20;99.90
20714;DHT22;10518;50.742;4.226;2023-04-07T12:21:09;14.40;99.90
20714;DHT22;10518;50.742;4.226;2023-04-07T12:23:34;14.60;99.90
20714;DHT22;10518;50.742;4.226;2023-04-07T12:26:00;14.70;99.90
20714;DHT22;10518;50.742;4.226;2023-04-07T12:28:26;14.80;99.90
20714;DHT22;10518;50.742;4.226;2023-04-07T12:30:52;14.70;99.90
20714;DHT22;10518;50.742;4.226;2023-04-07T12:33:18;14.00;99.90
20714;DHT22;10518;50.742;4.226;2023-04-07T12:35:44;13.90;99.90
20714;DHT22;10518;50.742;4.226;2023-04-07T12:38:09;13.90;99.90
20714;DHT22;10518;50.742;4.226;2023-04-07T12:40:35;13.70;99.90
20714;DHT22;10518;50.742;4.226;2023-04-07T12:43:02;13.50;99.90
20714;DHT22;10518;50.742;4.226;2023-04-07T12:45:28;13.30;99.90
20714;DHT22;10518;50.742;4.226;2023-04-07T12:47:55;13.10;99.90
20714;DHT22;10518;50.742;4.226;2023-04-07T12:50:21;12.80;99.90
20714;DHT22;10518;50.742;4.226;2023-04-07T12:52:47;13.10;99.90
20714;DHT22;10518;50.742;4.226;2023-04-07T12:55:12;13.30;99.90
20714;DHT22;10518;50.742;4.226;2023-04-07T12:57:38;13.40;99.90
20714;DHT22;10518;50.742;4.226;2023-04-07T13:00:04;13.50;99.90
20714;DHT22;10518;50.742;4.226;2023-04-07T13:02:30;13.40;99.90
20714;DHT22;10518;50.742;4.226;2023-04-07T13:04:56;13.50;99.90
20714;DHT22;10518;50.742;4.226;2023-04-07T13:07:21;13.60;99.90
20714;DHT22;10518;50.742;4.226;2023-04-07T13:09:47;13.70;99.90
20714;DHT22;10518;50.742;4.226;2023-04-07T13:12:13;13.90;99.90
20714;DHT22;10518;50.742;4.226;2023-04-07T13:14:39;13.80;99.90
20714;DHT22;10518;50.742;4.226;2023-04-07T13:17:05;14.00;99.90
20714;DHT22;10518;50.742;4.226;2023-04-07T13:19:31;14.20;99.90
20714;DHT22;10518;50.742;4.226;2023-04-07T13:21:57;13.90;99.90
20714;DHT22;10518;50.742;4.226;2023-04-07T13:24:22;14.00;99.90
20714;DHT22;10518;50.742;4.226;2023-04-07T13:26:49;13.70;99.90
20714;DHT22;10518;50.742;4.226;2023-04-07T13:29:16;13.60;99.90
20714;DHT22;10518;50.742;4.226;2023-04-07T13:31:43;13.30;99.90
20714;DHT22;10518;50.742;4.226;2023-04-07T13:34:09;13.50;99.90
20714;DHT22;10518;50.742;4.226;2023-04-07T13:36:34;13.20;99.90
20714;DHT22;10518;50.742;4.226;2023-04-07T13:39:00;13.20;99.90
20714;DHT22;10518;50.742;4.226;2023-04-07T13:41:26;13.20;99.90
20714;DHT22;10518;50.742;4.226;2023-04-07T13:43:52;12.60;99.90
20714;DHT22;10518;50.742;4.226;2023-04-07T13:46:17;13.00;99.90
20714;DHT22;10518;50.742;4.226;2023-04-07T13:48:44;13.40;99.90
20714;DHT22;10518;50.742;4.226;2023-04-07T13:51:11;13.50;99.90
20714;DHT22;10518;50.742;4.226;2023-04-07T13:53:36;13.60;99.90
20714;DHT22;10518;50.742;4.226;2023-04-07T13:56:02;13.50;99.90
20714;DHT22;10518;50.742;4.226;2023-04-07T13:58:30;13.60;99.90
20714;DHT22;10518;50.742;4.226;2023-04-07T14:00:55;13.60;99.90
20714;DHT22;10518;50.742;4.226;2023-04-07T14:03:21;13.60;99.90
20714;DHT22;10518;50.742;4.226;2023-04-07T14:05:47;13.70;99.90
20714;DHT22;10518;50.742;4.226;2023-04-07T14:08:13;13.70;99.90
20714;DHT22;10518;50.742;4.226;2023-04-07T14:10:39;13.70;99.90
20714;DHT22;10518;50.742;4.226;2023-04-07T14:13:05;13.70;99.90
20714;DHT22;10518;50.742;4.226;2023-04-07T14:15:31;14.00;99.90
20714;DHT22;10518;50.742;4.226;2023-04-07T14:17:58;14.30;99.90
20714;DHT22;10518;50.742;4.226;2023-04-07T14:20:25;14.10;99.90
20714;DHT22;10518;50.742;4.226;2023-04-07T14:22:50;13.80;99.90
20714;DHT22;10518;50.742;4.226;2023-04-07T14:25:16;13.70;99.90
20714;DHT22;10518;50.742;4.226;2023-04-07T14:27:42;13.60;99.90
20714;DHT22;10518;50.742;4.226;2023-04-07T14:30:08;13.50;99.90
20714;DHT22;10518;50.742;4.226;2023-04-07T14:32:34;13.20;99.90
20714;DHT22;10518;50.742;4.226;2023-04-07T14:35:00;12.90;99.90
20714;DHT22;10518;50.742;4.226;2023-04-07T14:37:27;12.90;99.90
20714;DHT22;10518;50.742;4.226;2023-04-07T14:39:53;12.80;99.90
20714;DHT22;10518;50.742;4.226;2023-04-07T14:42:19;12.70;99.90
20714;DHT22;10518;50.742;4.226;2023-04-07T14:44:45;12.70;99.90
20714;DHT22;10518;50.742;4.226;2023-04-07T14:47:11;13.00;99.90
20714;DHT22;10518;50.742;4.226;2023-04-07T14:49:37;12.80;99.90
20714;DHT22;10518;50.742;4.226;2023-04-07T14:52:03;12.50;99.90
20714;DHT22;10518;50.742;4.226;2023-04-07T14:54:29;12.50;99.90
20714;DHT22;10518;50.742;4.226;2023-04-07T14:56:54;12.60;99.90
20714;DHT22;10518;50.742;4.226;2023-04-07T14:59:20;12.30;99.90
20714;DHT22;10518;50.742;4.226;2023-04-07T15:01:45;12.40;99.90
20714;DHT22;10518;50.742;4.226;2023-04-07T15:04:11;12.50;99.90
20714;DHT22;10518;50.742;4.226;2023-04-07T15:06:40;12.40;99.90
20714;DHT22;10518;50.742;4.226;2023-04-07T15:09:07;12.50;99.90
20714;DHT22;10518;50.742;4.226;2023-04-07T15:11:32;12.50;99.90
20714;DHT22;10518;50.742;4.226;2023-04-07T15:13:58;12.80;99.90
20714;DHT22;10518;50.742;4.226;2023-04-07T15:16:25;13.10;99.90
20714;DHT22;10518;50.742;4.226;2023-04-07T15:18:51;13.30;99.90
20714;DHT22;10518;50.742;4.226;2023-04-07T15:21:17;13.40;99.90
20714;DHT22;10518;50.742;4.226;2023-04-07T15:23:43;13.60;99.90
20714;DHT22;10518;50.742;4.226;2023-04-07T15:26:10;13.50;99.90
20714;DHT22;10518;50.742;4.226;2023-04-07T15:28:36;13.10;99.90
20714;DHT22;10518;50.742;4.226;2023-04-07T15:31:02;13.10;99.90
20714;DHT22;10518;50.742;4.226;2023-04-07T15:33:32;12.50;99.90
20714;DHT22;10518;50.742;4.226;2023-04-07T15:35:58;12.80;99.90
20714;DHT22;10518;50.742;4.226;2023-04-07T15:38:26;12.80;99.90
20714;DHT22;10518;50.742;4.226;2023-04-07T15:40:52;13.10;99.90
20714;DHT22;10518;50.742;4.226;2023-04-07T15:43:18;13.00;99.90
20714;DHT22;10518;50.742;4.226;2023-04-07T15:45:43;13.30;99.90
20714;DHT22;10518;50.742;4.226;2023-04-07T15:48:10;13.10;99.90
20714;DHT22;10518;50.742;4.226;2023-04-07T15:50:36;13.20;99.90
20714;DHT22;10518;50.742;4.226;2023-04-07T15:53:03;13.40;99.90
20714;DHT22;10518;50.742;4.226;2023-04-07T15:55:32;13.20;99.90
20714;DHT22;10518;50.742;4.226;2023-04-07T15:57:58;13.10;99.90